^^
Station Historical Data
 
Daily Summary for February 18, 2019 Units:  English    Metric   Both
« Previous Day
Next Day »
Daily Weekly Monthly Yearly Custom
  Current: High: Low: Average:
Temperature: 67.6 °F TemperatureF °F 67.5 °F 66.2 °F
Dew Point: 67.1 °F DewpointF °F 66.9 °F 65.7 °F
Humidity: 98% Humidity% 98% 96%
Wind Speed: 2.9mph WindSpeedMPHmph 0.9mph 2.8mph
Wind Gust: 4.0mph WindSpeedGustMPHmph - -
WindESE - - ESE
Pressure: 29.95 in PressureIn in 29.94 in -
Precipitation: 0.07 in      
Historical Graphs
 
 
Tabular Data for February 18, 2019
Time Temperature Dew Point Pressure Wind Wind Speed Wind Gust Humidity Rainfall Rate (Hourly) Conditions
TemperatureF °F DewpointF °F PressureIn in Calm     Humidity% HourlyPrecipIn in Conditions
00:04 67.6 °F 67.1 °F 29.94 in ESE 6.0 mph 6.0 mph 98% 0.01 in
00:09 67.8 °F 67.3 °F 29.94 in ESE 8.1 mph 8.0 mph 98% 0.01 in
00:14 67.8 °F 67.3 °F 29.94 in ESE 2.0 mph 7.0 mph 98% 0.01 in
00:19 67.8 °F 67.3 °F 29.94 in ESE 2.0 mph 5.0 mph 98% 0.01 in
00:24 67.6 °F 67.1 °F 29.94 in ESE 4.9 mph 6.0 mph 98% 0.01 in
00:29 67.6 °F 67.1 °F 29.94 in ESE 2.9 mph 5.0 mph 98% 0.01 in
00:30 67.6 °F 67.1 °F 29.94 in ESE 2.9 mph 5.0 mph 98% 0.01 in
00:39 67.8 °F 67.3 °F 29.94 in ESE 6.9 mph 9.0 mph 98% 0.00 in
00:44 67.8 °F 67.3 °F 29.94 in ESE 2.9 mph 4.0 mph 98% 0.00 in
00:49 67.8 °F 67.3 °F 29.95 in ESE 2.9 mph 4.0 mph 98% 0.00 in
00:54 67.8 °F 67.3 °F 29.95 in ESE 2.0 mph 5.0 mph 98% 0.00 in
00:59 67.8 °F 67.3 °F 29.95 in ESE 2.0 mph 5.0 mph 98% 0.00 in
01:04 67.8 °F 67.3 °F 29.95 in ESE 2.0 mph 4.0 mph 98% 0.00 in
01:09 67.8 °F 67.3 °F 29.95 in ESE 2.9 mph 6.0 mph 98% 0.00 in
01:14 67.8 °F 67.3 °F 29.95 in ESE 4.0 mph 8.0 mph 98% 0.00 in
01:19 67.8 °F 67.3 °F 29.95 in ESE 2.9 mph 6.0 mph 98% 0.00 in
01:24 67.8 °F 67.3 °F 29.95 in ESE 2.0 mph 5.0 mph 98% 0.00 in
01:29 67.6 °F 67.1 °F 29.95 in ESE 2.9 mph 6.0 mph 98% 0.00 in
01:39 67.6 °F 67.1 °F 29.95 in ESE 2.9 mph 4.0 mph 98% 0.00 in
01:43 67.8 °F 67.3 °F 29.95 in ESE 2.9 mph 5.0 mph 98% 0.00 in
01:49 67.6 °F 67.1 °F 29.95 in ESE 2.0 mph 4.0 mph 98% 0.00 in
01:54 67.6 °F 67.1 °F 29.95 in ESE 2.0 mph 5.0 mph 98% 0.00 in
01:59 67.6 °F 67.1 °F 29.95 in ESE 0.9 mph 3.0 mph 98% 0.00 in
02:04 67.6 °F 67.1 °F 29.94 in ESE 4.9 mph 6.0 mph 98% 0.00 in
02:09 67.6 °F 67.1 °F 29.94 in ESE 2.9 mph 4.0 mph 98% 0.06 in
02:14 67.6 °F 67.1 °F 29.94 in ESE 2.0 mph 3.0 mph 98% 0.06 in
02:19 67.6 °F 67.1 °F 29.95 in ESE 2.0 mph 3.0 mph 98% 0.06 in
02:24 67.6 °F 67.1 °F 29.95 in ESE 4.0 mph 5.0 mph 98% 0.06 in
02:29 67.5 °F 66.9 °F 29.94 in ESE 2.9 mph 3.0 mph 98% 0.06 in
02:34 67.5 °F 66.9 °F 29.94 in ESE 2.0 mph 3.0 mph 98% 0.06 in
02:39 67.5 °F 66.9 °F 29.94 in ESE 0.9 mph 3.0 mph 98% 0.06 in
02:49 67.5 °F 66.9 °F 29.95 in ESE 2.0 mph 4.0 mph 98% 0.00 in
02:54 67.5 °F 66.9 °F 29.95 in ESE 2.0 mph 3.0 mph 98% 0.00 in
02:59 67.5 °F 66.9 °F 29.95 in ESE 2.0 mph 4.0 mph 98% 0.00 in
03:04 67.5 °F 66.9 °F 29.95 in ESE 2.0 mph 2.0 mph 98% 0.00 in
03:09 67.5 °F 66.9 °F 29.95 in ESE 4.0 mph 4.0 mph 98% 0.00 in
03:14 67.6 °F 67.1 °F 29.95 in ESE 2.9 mph 5.0 mph 98% 0.00 in
03:19 67.6 °F 67.1 °F 29.95 in ESE 2.0 mph 2.0 mph 98% 0.00 in
03:24 67.6 °F 67.1 °F 29.95 in ESE 2.9 mph 4.0 mph 98% 0.00 in
03:29 67.6 °F 67.1 °F 29.95 in ESE 2.0 mph 2.0 mph 98% 0.00 in
03:34 67.6 °F 67.1 °F 29.95 in ESE 0.9 mph 4.0 mph 98% 0.00 in
03:39 67.6 °F 67.1 °F 29.95 in ESE 4.9 mph 6.0 mph 98% 0.00 in
03:44 67.8 °F 67.3 °F 29.95 in ESE 4.0 mph 4.0 mph 98% 0.00 in
03:49 67.8 °F 67.3 °F 29.95 in ESE 4.0 mph 5.0 mph 98% 0.00 in
03:54 67.8 °F 67.3 °F 29.95 in ESE 0.9 mph 3.0 mph 98% 0.00 in
04:04 67.6 °F 67.1 °F 29.95 in ESE 2.9 mph 4.0 mph 98% 0.00 in
Panama City, Florida, USA
Compliments of Weather Underground - 2.5 mb